Weather observations for the past three days for
Faleolo Intl / Apia, Samoa
Imperial (Metric)
Date Time (+13) Wind (mph) Vis. (mi.) Weather Sky Cond. Temperature (ºF) Relative Humidity Wind Chill (°F) Heat Index (°F) Pressure Precipitation (in)
Air Dwpt 6 hour altimeter (in) sea level (mb) 1 hr 3 hr 6 hr
Max. Min.
05 11:00 E 7 0.00 Mostly Cloudy FEW022 SCT050 BKN150 86 77 75% 97 0 0.0
05 10:00 E 7 0.00 Mostly Cloudy FEW022 SCT045 BKN150 84.2 77 79% 94 0 0.0
05 09:00 SE 7 0.00 Mostly Cloudy FEW020 SCT045 BKN150 78.8 75.2 89% 82 0 0.0
05 08:00 E 6 0.00 Partly Cloudy FEW020 SCT040 77 75.2 94% 78 0 0.0
05 07:00 S 6 0.00 Heavy Rain FEW018 BKN030 OVC100 77 75.2 94% 78 0 0.0
05 06:00 SE 6 0.00 Mostly Cloudy SCT022 BKN150 78.8 75.2 89% 82 0 0.0
05 05:00 SE 3 0.00 Mostly Cloudy SCT022 BKN150 78.8 75.2 89% 82 0 0.0
05 04:00 Vrbl 2 0.00 Mostly Cloudy FEW020TCU SCT022 BKN140 78.8 75.2 89% 82 0 0.0
05 03:00 Vrbl 2 0.00 Mostly Cloudy FEW022 SCT050 BKN140 78.8 75.2 89% 82 0 0.0
05 02:00 SE 5 0.00 Mostly Cloudy FEW022 SCT050 BKN140 77 73.4 89% 78 0 0.0
05 01:00 Vrbl 2 0.00 Mostly Cloudy FEW022 SCT050 BKN130 77 73.4 89% 78 0 0.0
05 00:00 SE 7 0.00 Mostly Cloudy FEW022 SCT045 BKN120 77 73.4 89% 78 0 0.0
04 23:00 SE 3 0.00 Mostly Cloudy FEW022 SCT050 BKN120 77 75.2 94% 78 0 0.0
04 22:00 Vrbl 2 0.00 Overcast FEW020 SCT050 OVC120 78.8 77 94% 83 0 0.0
04 21:00 E 5 0.00 Overcast SCT018 SCT050 OVC120 78.8 77 94% 83 0 0.0
04 20:00 E 5 0.00 Light Drizzle SCT020 SCT050 OVC120 80.6 77 89% 87 0 0.0
04 19:00 SE 5 0.00 Overcast SCT018 OVC120 80.6 77 89% 87 0 0.0
04 18:00 NE 8 0.00 Overcast FEW022 SCT050 OVC120 82.4 75.2 79% 89 0 0.0
04 17:00 E 6 0.00 Overcast FEW024 SCT050 OVC120 84.2 73.4 70% 91 0 0.0
04 16:00 SW 5 0.00 Mostly Cloudy FEW022 SCT050 BKN120 84.2 73.4 70% 91 0 0.0
04 15:00 W 3 0.00 Mostly Cloudy FEW022 SCT050 BKN120 84.2 75.2 74% 92 0 0.0
04 14:00 W 5 0.00 Mostly Cloudy FEW022 SCT050 BKN120 86 77 75% 97 0 0.0
04 13:00 S 7 0.00 Overcast FEW022 OVC110 84.2 77 79% 94 0 0.0
04 12:00 SW 6 0.00 Overcast FEW021 OVC110 84.2 77 79% 94 0 0.0
04 11:00 W 6 0.00 Overcast SCT021 OVC110 84.2 78.8 84% 96 0 0.0
04 10:00 SW 3 0.00 Drizzle FEW020 SCT040 OVC120 80.6 77 89% 87 0 0.0
04 09:00 Vrbl 2 0.00 Overcast SCT020 OVC120 80.6 77 89% 87 0 0.0
04 08:00 SW 6 0.00 Overcast SCT020 OVC110 78.8 75.2 89% 82 0 0.0
04 07:00 SW 6 0.00 Overcast SCT022 OVC110 77 75.2 94% 78 0 0.0
04 06:00 SE 6 0.00 Overcast SCT023 OVC120 77 75.2 94% 78 0 0.0
04 05:00 Vrbl 1 0.00 Overcast SCT023 OVC120 77 75.2 94% 78 0 0.0
04 04:00 N 6 0.00 Overcast SCT022 OVC110 78.8 73.4 84% 82 0 0.0
04 03:00 W 8 0.00 Overcast SCT022 OVC120 78.8 75.2 89% 82 0 0.0
04 02:00 Vrbl 2 0.00 Overcast SCT021 OVC120 78.8 75.2 89% 82 0 0.0
04 01:00 SE 3 0.00 Overcast SCT022 OVC120 80.6 75.2 84% 86 0 0.0
04 00:00 E 3 0.00 Overcast SCT022 OVC120 80.6 75.2 84% 86 0 0.0
03 23:00 SE 6 0.00 Overcast SCT022 OVC120 80.6 75.2 84% 86 0 0.0
03 22:00 SE 7 0.00 Overcast SCT022 OVC120 82.4 75.2 79% 89 0 0.0
03 21:00 SE 5 0.00 Mostly Cloudy FEW022 SCT050 BKN120 80.6 73.4 79% 85 0 0.0
03 20:00 Vrbl 2 0.00 Mostly Cloudy SCT022 BKN120 78.8 75.2 89% 82 0 0.0
03 19:00 SE 3 0.00 Mostly Cloudy FEW022 SCT120 BKN300 80.6 77 89% 87 0 0.0
03 18:00 SE 5 0.00 Mostly Cloudy FEW024 BKN120 82.4 77 84% 91 0 0.0
03 17:00 E 8 0.00 Mostly Cloudy FEW022 SCT120 BKN280 82.4 77 84% 91 0 0.0
03 16:00 E 8 0.00 Mostly Cloudy FEW022 SCT120 BKN280 80.6 77 89% 87 0 0.0
03 15:00 NE 7 0.00 Mostly Cloudy FEW020CB SCT022 BKN280 80.6 77 89% 87 0 0.0
03 14:00 SE 8 0.00 Light Rain FEW018CB BKN020 78.8 75.2 89% 82 0 0.0
03 13:15 S 8 0.00 Light Showers Rain FEW016CB BKN018 78.8 75.2 89% 82 0 0.0
03 13:00 S 10 0.00 Thunderstorm Heavy Rain FEW015CB BKN018 78.8 75.2 89% 82 0 0.0
03 12:00 NE 9 0.00 Showers in Vicinity FEW017CB BKN018 89.6 77 67% 103 0 0.0
03 11:00 NE 6 0.00 Partly Cloudy SCT023 87.8 77 70% 100 0 0.0
03 10:00 NW 5 0.00 A Few Clouds FEW023 87.8 73.4 62% 96 0 0.0
03 09:00 Vrbl 2 0.00 A Few Clouds FEW024 86 75.2 70% 95 0 0.0
03 08:00 Vrbl 2 0.00 A Few Clouds FEW024 78.8 75.2 89% 82 0 0.0
03 07:00 Vrbl 2 0.00 A Few Clouds FEW024 75.2 73.4 94% 74 0 0.0
03 06:00 S 3 0.00 A Few Clouds FEW024 75.2 73.4 94% 74 0 0.0
03 05:00 S 3 0.00 A Few Clouds FEW024 75.2 73.4 94% 74 0 0.0
03 04:00 Vrbl 2 0.00 A Few Clouds FEW023 75.2 73.4 94% 74 0 0.0
03 03:00 Vrbl 2 0.00 A Few Clouds FEW023 75.2 73.4 94% 74 0 0.0
03 02:00 Vrbl 2 0.00 A Few Clouds FEW023 75.2 73.4 94% 74 0 0.0
03 01:00 Vrbl 2 0.00 A Few Clouds FEW024 75.2 73.4 94% 74 0 0.0
03 00:00 Vrbl 1 0.00 Partly Cloudy FEW024 SCT280 77 73.4 89% 78 0 0.0
02 23:00 S 3 0.00 Mostly Cloudy FEW022 BKN270 77 73.4 89% 78 0 0.0
02 22:00 SE 3 0.00 Mostly Cloudy FEW022 BKN270 78.8 73.4 84% 82 0 0.0
02 21:00 SE 3 0.00 Mostly Cloudy FEW022 BKN260 80.6 75.2 84% 86 0 0.0
02 19:00 Vrbl 2 0.00 Mostly Cloudy SCT022 BKN260 82.4 75.2 79% 89 0 0.0
02 18:00 E 3 0.00 Mostly Cloudy SCT022 BKN260 84.2 75.2 74% 92 0 0.0
02 17:00 NE 5 0.00 Mostly Cloudy SCT022 BKN260 86 73.4 66% 93 0 0.0
02 16:00 NE 6 0.00 Mostly Cloudy SCT022 BKN260 86 75.2 70% 95 0 0.0
02 15:00 NE 7 0.00 Mostly Cloudy SCT022 BKN270 86 77 75% 97 0 0.0
02 14:00 NE 8 0.00 Mostly Cloudy FEW020 SCT040 BKN140 86 77 75% 97 0 0.0
02 12:00 NE 9 0.00 Mostly Cloudy FEW018CB SCT022 BKN160 87.8 80.6 79% 105 0 0.0
Date Time (+13) Wind (mph) Vis. (mi.) Weather Sky Cond. Air Dwpt Max. Min. Relative Humidity Wind Chill (°F) Heat Index (°F) altimeter (in) sea level (mb) 1 hr 3 hr 6 hr
6 hour
Temperature (ºF) Pressure Precipitation (in)